Brasil Novo, Brazil
Current Conditions -  °F | °C
As of 12:00 PM on Saturday 25 Oct 2014 (Local Time) from SBHT Reporting Station
Broken Clouds Broken Clouds  
Wind Chill: 88°   Ceiling: 2000
Heat Index: 100°   Visibility: 6mi
Dew Point: 77°   Wind: 5mph
Humidity: 70%   Direction: 70°ENE
Pressure: 29.88"   Gusts: NA
Location:  3.3°S, 53.54°W
Report Text: SBHT 251500Z 07004KT 9999 BKN020 31/25 Q1012
Loading
Personal Weather Stations






























Interactive Weather Map
Tropical Storm Tracking
New forecast layout! Learn more

10-Day Weather Forecast

Advertisements
Track Severe Weather on mobile